Longboat Key, Florida
Current Conditions -  °F | °C
As of 3:53 AM on Monday 22 Dec 2014 (Local Time) from KSRQ Reporting Station
Light Rain Light Rain  
Wind Chill: 68°   Ceiling: Unl
Heat Index: 68°   Visibility: 10mi
Dew Point: 67°   Wind: 6mph
Humidity: 96%   Direction: 120°ESE
Pressure: 29.94"   Gusts: NA
Location:  27.37°N, 82.62°W
Report Text: KSRQ 220853Z AUTO 12005KT 10SM -RA FEW060 SCT090 SCT110 20/19 A2994 RMK AO2 RAB16 SLP136 P0001 60002 T02000194 58015
Loading
Personal Weather Stations






























Interactive Weather Map New forecast layout! Learn more

10-Day Weather Forecast

Advertisements
Track Severe Weather on mobile